Time;durP1;ratioP1;P1;durP2;ratioP2;P2;SDS_P1;SDS_P2;PMS_P1;PMS_P2;Temp;Humidity;BMP_temperature;BMP_pressure;BME280_temperature;BME280_humidity;BME280_pressure;Samples;Min_cycle;Max_cycle;Signal;HPM_P1;HPM_P2
2024/01/04 00:00:09;;;;;;;4.85;1.40;;;;;;;12.38;58.84;100091.00;4230419;28;20071;-50
2024/01/04 00:02:11;;;;;;;7.00;1.77;;;;;;;12.37;58.73;100091.94;4230326;28;20055;-52
2024/01/04 00:04:12;;;;;;;8.10;1.75;;;;;;;12.37;58.24;100094.56;4229148;28;20130;-54
2024/01/04 00:06:14;;;;;;;7.15;1.80;;;;;;;12.35;58.31;100092.94;4230166;28;20039;-52
2024/01/04 00:08:17;;;;;;;8.02;1.65;;;;;;;12.36;58.79;100097.25;4230057;28;20498;-51
2024/01/04 00:10:19;;;;;;;6.75;1.80;;;;;;;12.35;58.74;100099.06;4229839;28;20044;-52
2024/01/04 00:12:20;;;;;;;7.28;1.75;;;;;;;12.35;58.61;100108.75;4230198;28;20040;-51
2024/01/04 00:14:22;;;;;;;6.80;1.73;;;;;;;12.34;58.72;100107.91;4221652;28;20415;-53
2024/01/04 00:16:23;;;;;;;7.32;1.60;;;;;;;12.34;58.70;100113.16;4212588;28;20457;-52
2024/01/04 00:18:26;;;;;;;7.47;2.08;;;;;;;12.34;58.56;100112.34;4213171;28;20067;-50
2024/01/04 00:20:27;;;;;;;;;;;;;;;12.32;58.54;100109.78;4213799;28;20048;-49
2024/01/04 00:22:29;;;;;;;5.60;1.55;;;;;;;12.30;58.39;100107.22;4213220;28;20465;-48
2024/01/04 00:24:31;;;;;;;6.22;1.55;;;;;;;12.32;58.55;100122.09;4213257;28;20063;-48
2024/01/04 00:26:32;;;;;;;6.65;1.73;;;;;;;12.32;58.66;100111.56;4213297;28;20541;-51
2024/01/04 00:28:34;;;;;;;6.53;1.40;;;;;;;12.32;58.45;100122.97;4213217;28;20040;-52
2024/01/04 00:30:36;;;;;;;7.85;2.05;;;;;;;12.32;58.36;100122.09;4212951;28;20122;-53
2024/01/04 00:32:37;;;;;;;7.40;2.08;;;;;;;12.32;58.23;100115.06;4213281;28;20040;-49
2024/01/04 00:34:39;;;;;;;7.20;1.63;;;;;;;12.31;58.34;100134.44;4213045;28;20097;-53
2024/01/04 00:36:41;;;;;;;5.95;1.75;;;;;;;12.31;58.70;100129.16;4213146;28;20087;-51
2024/01/04 00:38:42;;;;;;;7.28;1.63;;;;;;;12.30;58.61;100133.56;4212923;28;20464;-51
2024/01/04 00:40:44;;;;;;;6.22;1.70;;;;;;;12.30;58.60;100136.22;4213288;28;20045;-51
2024/01/04 00:42:46;;;;;;;8.35;2.03;;;;;;;12.29;58.61;100147.69;4213189;28;20052;-52
2024/01/04 00:44:47;;;;;;;8.20;1.92;;;;;;;12.31;58.66;100145.00;4212849;28;20051;-52
2024/01/04 00:46:50;;;;;;;6.93;2.10;;;;;;;12.29;58.61;100152.97;4212862;28;20051;-52
2024/01/04 00:48:52;;;;;;;8.57;1.92;;;;;;;12.30;58.75;100149.41;4212863;28;20048;-52
2024/01/04 00:50:54;;;;;;;8.48;2.30;;;;;;;12.30;58.51;100148.56;4213212;28;20050;-53
2024/01/04 00:52:56;;;;;;;7.30;1.80;;;;;;;12.29;58.38;100155.59;4213098;28;20526;-53
2024/01/04 00:55:09;;;;;;;6.25;1.75;;;;;;;12.29;58.60;100163.50;4212823;28;20064;-53
2024/01/04 00:57:11;;;;;;;7.28;1.80;;;;;;;12.28;58.50;100156.56;4212944;28;20123;-52
2024/01/04 00:59:16;;;;;;;9.35;2.10;;;;;;;12.29;58.49;100166.13;4212776;28;20066;-46
2024/01/04 01:01:17;;;;;;;9.52;1.85;;;;;;;12.29;58.57;100162.66;4212630;28;20048;-50
2024/01/04 01:03:19;;;;;;;6.88;1.88;;;;;;;12.28;58.72;100172.38;4212873;28;20467;-51
2024/01/04 01:05:21;;;;;;;7.10;1.85;;;;;;;12.28;58.84;100182.91;4212904;28;20475;-51
2024/01/04 01:07:22;;;;;;;7.18;1.80;;;;;;;12.27;58.67;100177.69;4212665;28;20048;-52
2024/01/04 01:09:24;;;;;;;7.88;1.90;;;;;;;12.26;58.31;100179.50;4214045;28;20048;-51
2024/01/04 01:11:26;;;;;;;7.68;2.03;;;;;;;12.26;58.35;100173.34;4215964;28;20047;-52
2024/01/04 01:13:27;;;;;;;7.32;2.08;;;;;;;12.27;58.73;100193.53;4216548;28;20051;-51
2024/01/04 01:15:29;;;;;;;7.55;1.55;;;;;;;12.27;58.26;100197.03;4232730;28;20161;-51
2024/01/04 01:17:31;;;;;;;7.30;1.63;;;;;;;12.26;58.60;100200.59;4232381;28;20063;-51
2024/01/04 01:19:32;;;;;;;5.55;1.35;;;;;;;12.25;58.36;100204.16;4232528;28;20131;-50
2024/01/04 01:21:34;;;;;;;7.55;1.80;;;;;;;12.25;58.51;100206.78;4232674;28;20048;-50
2024/01/04 01:23:36;;;;;;;6.72;1.63;;;;;;;12.26;58.38;100216.41;4232229;28;20097;-51
2024/01/04 01:25:37;;;;;;;6.28;1.70;;;;;;;12.26;58.73;100207.63;4232666;28;20043;-53
2024/01/04 01:27:39;;;;;;;6.70;2.10;;;;;;;12.25;58.44;100209.44;4232184;27;20544;-52
2024/01/04 01:29:41;;;;;;;7.30;1.63;;;;;;;12.25;58.53;100209.44;4232466;28;20386;-52
2024/01/04 01:31:43;;;;;;;5.97;1.73;;;;;;;12.26;58.43;100210.25;4232342;28;20556;-52
2024/01/04 01:33:45;;;;;;;7.47;1.73;;;;;;;12.22;58.37;100199.03;4232432;28;20043;-49
2024/01/04 01:35:47;;;;;;;8.15;2.10;;;;;;;12.25;58.28;100217.34;4231024;28;20040;-51
2024/01/04 01:37:49;;;;;;;6.75;1.73;;;;;;;12.23;58.59;100207.81;4232269;27;20047;-51
2024/01/04 01:39:51;;;;;;;7.82;1.75;;;;;;;12.22;58.56;100214.84;4232494;28;20529;-50
2024/01/04 01:41:52;;;;;;;7.60;1.80;;;;;;;12.24;58.25;100213.00;4232284;28;20043;-50
2024/01/04 01:43:54;;;;;;;9.55;1.90;;;;;;;12.23;58.45;100223.63;4232379;27;20051;-52
2024/01/04 01:45:56;;;;;;;6.75;1.85;;;;;;;12.22;58.70;100220.13;4232258;28;20458;-51
2024/01/04 01:47:58;;;;;;;7.88;1.90;;;;;;;12.23;58.68;100228.91;4232078;28;20069;-50
2024/01/04 01:50:00;;;;;;;;;;;;;;;12.21;58.80;100228.09;4232728;28;20058;-51
2024/01/04 01:52:02;;;;;;;8.30;1.95;;;;;;;12.20;58.62;100234.31;4232152;28;20166;-52
2024/01/04 01:54:04;;;;;;;8.13;1.85;;;;;;;12.21;58.26;100234.25;4232007;28;20104;-51
2024/01/04 01:56:06;;;;;;;10.48;2.13;;;;;;;12.21;58.39;100241.28;4232263;28;20438;-51
2024/01/04 01:58:08;;;;;;;8.43;2.20;;;;;;;12.21;58.68;100241.28;4231635;28;20047;-49
2024/01/04 02:00:11;;;;;;;7.78;2.20;;;;;;;12.19;58.41;100246.66;4230836;28;20061;-51
2024/01/04 02:02:13;;;;;;;6.25;1.77;;;;;;;12.21;58.78;100250.06;4215311;28;20046;-48
2024/01/04 02:04:15;;;;;;;;;;;;;;;12.18;58.80;100260.75;4215636;28;20058;-52
2024/01/04 02:06:16;;;;;;;7.22;2.10;;;;;;;12.18;58.45;100260.75;4215106;28;19934;-52
2024/01/04 02:08:18;;;;;;;8.57;2.17;;;;;;;12.18;58.59;100260.75;4215050;28;20506;-49
2024/01/04 02:10:20;;;;;;;9.57;2.25;;;;;;;12.20;58.44;100265.94;4214676;28;20047;-53
2024/01/04 02:12:22;;;;;;;9.18;1.92;;;;;;;12.20;58.64;100280.00;4214501;28;20426;-52
2024/01/04 02:14:23;;;;;;;7.40;1.73;;;;;;;12.21;58.50;100278.19;4223595;28;20044;-50
2024/01/04 02:16:25;;;;;;;6.65;1.42;;;;;;;12.20;58.60;100272.09;4231760;28;20054;-48
2024/01/04 02:18:27;;;;;;;7.93;1.85;;;;;;;12.17;58.59;100268.75;4231584;28;20058;-52
2024/01/04 02:20:28;;;;;;;;;;;;;;;12.17;58.49;100272.22;4231423;28;20063;-49
2024/01/04 02:22:30;;;;;;;8.98;1.83;;;;;;;12.16;58.59;100272.31;4230361;28;19920;-52
2024/01/04 02:24:32;;;;;;;7.70;2.13;;;;;;;12.18;58.56;100281.00;4231841;28;20122;-53
2024/01/04 02:26:33;;;;;;;7.65;2.00;;;;;;;12.17;58.59;100274.88;4231353;28;20127;-51
2024/01/04 02:28:35;;;;;;;9.00;2.00;;;;;;;12.17;58.54;100282.78;4230315;28;20560;-52
2024/01/04 02:30:37;;;;;;;8.38;1.88;;;;;;;12.17;58.73;100285.41;4231577;28;20047;-52
2024/01/04 02:32:38;;;;;;;7.88;1.52;;;;;;;12.18;58.62;100297.66;4231408;28;20127;-49
2024/01/04 02:34:40;;;;;;;7.97;2.10;;;;;;;12.17;58.79;100289.84;4231550;28;20048;-52
2024/01/04 02:36:42;;;;;;;7.93;1.92;;;;;;;12.17;58.59;100290.69;4231527;28;20525;-51
2024/01/04 02:38:43;;;;;;;6.70;1.75;;;;;;;12.16;58.83;100285.50;4231444;28;20043;-52
2024/01/04 02:40:46;;;;;;;7.07;1.63;;;;;;;12.17;58.23;100295.13;4231092;28;20499;-50
2024/01/04 02:42:48;;;;;;;8.98;2.28;;;;;;;12.16;58.30;100296.88;4231167;28;20461;-51
2024/01/04 02:44:50;;;;;;;9.30;2.25;;;;;;;12.16;58.54;100299.50;4231417;28;20052;-52
2024/01/04 02:46:51;;;;;;;7.55;1.70;;;;;;;12.16;58.12;100294.25;4231295;28;20044;-53
2024/01/04 02:48:53;;;;;;;5.88;1.70;;;;;;;12.16;58.30;100307.41;4231129;28;20055;-52
2024/01/04 02:50:55;;;;;;;;;;;;;;;12.14;58.37;100309.31;4231607;27;20506;-51
2024/01/04 02:52:57;;;;;;;7.82;1.92;;;;;;;12.11;58.78;100307.66;4231598;28;19924;-52
2024/01/04 02:54:59;;;;;;;7.93;2.10;;;;;;;12.13;58.62;100313.69;4230750;28;20059;-53
2024/01/04 02:57:01;;;;;;;6.88;1.73;;;;;;;12.15;58.14;100305.72;4230944;28;20044;-50
2024/01/04 02:59:02;;;;;;;7.25;1.77;;;;;;;12.14;58.39;100323.31;4231403;28;20536;-48
2024/01/04 03:01:04;;;;;;;9.13;1.73;;;;;;;12.13;58.26;100324.25;4223504;28;20427;-48
2024/01/04 03:03:06;;;;;;;6.38;1.60;;;;;;;12.14;58.18;100323.31;4214130;28;20048;-47
2024/01/04 03:05:08;;;;;;;9.90;2.10;;;;;;;12.14;58.42;100333.03;4214326;28;20047;-47
2024/01/04 03:07:09;;;;;;;8.50;1.95;;;;;;;12.15;58.37;100345.25;4214213;28;20125;-48
2024/01/04 03:09:11;;;;;;;7.47;1.55;;;;;;;12.15;58.51;100353.16;4213716;28;20499;-48
2024/01/04 03:11:13;;;;;;;10.50;2.30;;;;;;;12.15;58.44;100358.44;4214292;28;20226;-48
2024/01/04 03:13:14;;;;;;;9.10;1.75;;;;;;;12.14;58.59;100349.69;4213889;28;20062;-50
2024/01/04 03:15:16;;;;;;;7.07;1.80;;;;;;;12.13;58.45;100342.69;4229894;28;20050;-48
2024/01/04 03:17:18;;;;;;;8.00;1.63;;;;;;;12.13;58.07;100347.97;4230763;28;20051;-46
2024/01/04 03:19:19;;;;;;;6.63;1.80;;;;;;;12.13;58.09;100344.50;4230727;28;20055;-51
2024/01/04 03:21:21;;;;;;;8.52;1.98;;;;;;;12.13;58.48;100342.69;4230751;28;20043;-50
2024/01/04 03:23:23;;;;;;;7.63;1.85;;;;;;;12.13;58.50;100347.13;4230318;27;20050;-47
2024/01/04 03:25:24;;;;;;;7.10;2.15;;;;;;;12.13;58.52;100345.34;4230783;28;20044;-48
2024/01/04 03:27:26;;;;;;;7.85;2.10;;;;;;;12.12;58.17;100354.16;4230689;28;20478;-47
2024/01/04 03:29:28;;;;;;;6.57;1.55;;;;;;;12.12;58.41;100359.44;4230802;28;20056;-49
2024/01/04 03:31:29;;;;;;;6.65;1.70;;;;;;;12.12;58.21;100354.16;4230387;28;20048;-49
2024/01/04 03:33:31;;;;;;;9.95;2.40;;;;;;;12.11;58.49;100359.53;4230521;28;20043;-50
2024/01/04 03:35:33;;;;;;;7.40;1.60;;;;;;;12.11;58.65;100347.22;4230516;28;20039;-49
2024/01/04 03:37:34;;;;;;;8.10;1.80;;;;;;;12.12;58.57;100359.44;4230209;28;20093;-48
2024/01/04 03:39:36;;;;;;;6.50;1.70;;;;;;;12.14;58.67;100359.38;4230158;28;20054;-50
2024/01/04 03:41:38;;;;;;;6.57;1.75;;;;;;;12.13;58.33;100358.50;4229427;28;20476;-48
2024/01/04 03:43:39;;;;;;;7.65;1.80;;;;;;;12.12;58.29;100363.88;4230650;28;20391;-48
2024/01/04 03:45:41;;;;;;;7.75;1.88;;;;;;;12.13;58.66;100366.41;4230490;28;20131;-48
2024/01/04 03:47:43;;;;;;;7.82;2.00;;;;;;;12.14;58.30;100356.75;4230392;28;20043;-51
2024/01/04 03:49:44;;;;;;;8.00;1.92;;;;;;;12.10;58.40;100356.03;4230485;28;20067;-49
2024/01/04 03:51:46;;;;;;;7.82;1.60;;;;;;;12.13;58.26;100361.16;4230572;28;20536;-50
2024/01/04 03:53:48;;;;;;;8.90;2.08;;;;;;;12.13;58.52;100363.78;4230080;28;20044;-48
2024/01/04 03:55:49;;;;;;;8.52;1.95;;;;;;;12.11;58.63;100360.38;4230348;28;20052;-51
2024/01/04 03:57:51;;;;;;;7.97;2.00;;;;;;;12.11;58.43;100360.38;4229094;28;20036;-48
2024/01/04 03:59:53;;;;;;;7.88;1.83;;;;;;;12.11;58.20;100362.16;4230349;28;20497;-48
2024/01/04 04:01:54;;;;;;;8.05;1.67;;;;;;;12.11;58.59;100351.59;4215772;28;20423;-50
2024/01/04 04:03:56;;;;;;;7.32;1.80;;;;;;;12.11;58.35;100365.66;4213312;28;20071;-52
2024/01/04 04:06:04;;;;;;;7.22;1.90;;;;;;;12.11;58.41;100375.34;4213477;28;20052;-51
2024/01/04 04:08:06;;;;;;;7.45;1.60;;;;;;;12.10;58.28;100353.41;4213174;28;20483;-50
2024/01/04 04:10:08;;;;;;;7.78;1.83;;;;;;;12.11;58.34;100363.03;4213622;28;20157;-52
2024/01/04 04:12:10;;;;;;;9.48;2.00;;;;;;;12.12;58.69;100369.13;4213438;28;20051;-50
2024/01/04 04:14:12;;;;;;;7.53;1.88;;;;;;;12.12;58.24;100384.97;4220166;28;20054;-50
2024/01/04 04:16:13;;;;;;;6.22;1.95;;;;;;;12.11;58.48;100392.03;4229880;28;20051;-51
2024/01/04 04:18:15;;;;;;;7.28;1.70;;;;;;;12.11;58.29;100380.59;4230234;28;20043;-50
2024/01/04 04:20:17;;;;;;;7.80;1.65;;;;;;;12.11;58.44;100383.25;4230079;28;20097;-51
2024/01/04 04:22:18;;;;;;;9.10;1.95;;;;;;;12.10;58.10;100392.94;4229802;28;20051;-51
2024/01/04 04:24:20;;;;;;;9.05;2.13;;;;;;;12.10;58.23;100394.72;4230200;28;20422;-49
2024/01/04 04:26:22;;;;;;;6.32;1.70;;;;;;;12.10;58.66;100381.53;4230187;28;20490;-51
2024/01/04 04:28:29;;;;;;;7.25;1.80;;;;;;;12.09;58.26;100391.22;4230237;28;20059;-50
2024/01/04 04:30:30;;;;;;;8.68;1.70;;;;;;;12.06;58.33;100378.19;4230051;28;20046;-51
2024/01/04 04:32:32;;;;;;;9.02;1.98;;;;;;;12.05;58.47;100378.25;4229910;28;20075;-49
2024/01/04 04:34:35;;;;;;;7.22;1.60;;;;;;;12.05;58.47;100387.00;4229110;28;20047;-50
2024/01/04 04:36:37;;;;;;;8.38;2.20;;;;;;;12.08;58.47;100397.44;4229828;28;20043;-49
2024/01/04 04:38:39;;;;;;;;;;;;;;;12.06;58.36;100398.44;4230740;28;20371;-51
2024/01/04 04:40:45;;;;;;;7.10;1.90;;;;;;;12.04;58.71;100395.88;4229958;28;19927;-54
2024/01/04 04:42:52;;;;;;;7.85;1.85;;;;;;;12.05;58.46;100399.34;4229917;28;20126;-49
2024/01/04 04:45:00;;;;;;;9.50;2.03;;;;;;;12.07;58.54;100400.16;4232054;28;20055;-50
2024/01/04 04:47:02;;;;;;;7.45;1.80;;;;;;;12.07;58.13;100400.97;4233209;28;20048;-54
2024/01/04 04:49:03;;;;;;;;;;;;;;;12.05;58.59;100396.72;4233870;28;20040;-50
2024/01/04 04:51:05;;;;;;;8.52;1.95;;;;;;;12.04;58.49;100395.00;4232999;28;19972;-49
2024/01/04 04:53:11;;;;;;;10.52;2.45;;;;;;;12.05;58.62;100400.19;4233210;28;20425;-51
2024/01/04 04:55:18;;;;;;;7.40;1.88;;;;;;;12.04;58.52;100401.16;4232971;28;20044;-48
2024/01/04 04:57:19;;;;;;;8.60;1.85;;;;;;;12.04;58.37;100403.78;4232905;28;20130;-51
2024/01/04 04:59:21;;;;;;;8.48;2.00;;;;;;;12.04;58.62;100400.28;4232938;27;20486;-50
2024/01/04 05:01:23;;;;;;;8.65;2.08;;;;;;;12.05;58.53;100409.91;4222711;28;20299;-50
2024/01/04 05:03:25;;;;;;;8.02;2.05;;;;;;;12.04;58.13;100406.41;4215929;28;20094;-51
2024/01/04 05:05:27;;;;;;;9.45;2.35;;;;;;;12.02;58.47;100405.63;4215932;28;20044;-49
2024/01/04 05:07:29;;;;;;;8.48;2.10;;;;;;;12.02;58.25;100408.25;4216022;28;20044;-50
2024/01/04 05:09:31;;;;;;;7.88;2.15;;;;;;;12.03;58.23;100415.25;4215742;28;20135;-48
2024/01/04 05:11:33;;;;;;;9.73;2.13;;;;;;;12.04;58.27;100416.09;4216000;28;20044;-46
2024/01/04 05:13:34;;;;;;;7.75;1.80;;;;;;;12.03;58.47;100420.53;4217477;28;20534;-51
2024/01/04 05:15:36;;;;;;;7.63;2.00;;;;;;;12.03;58.36;100417.00;4232805;28;20428;-48
2024/01/04 05:17:38;;;;;;;6.45;1.42;;;;;;;12.03;58.54;100415.25;4232539;28;20492;-48
2024/01/04 05:19:43;;;;;;;5.85;1.65;;;;;;;12.03;58.06;100431.06;4232278;28;20131;-52
2024/01/04 05:21:45;;;;;;;8.63;2.10;;;;;;;12.02;58.25;100429.34;4232625;28;20044;-51
2024/01/04 05:23:46;;;;;;;7.15;1.70;;;;;;;12.02;58.39;100425.84;4232700;28;20040;-54
2024/01/04 05:25:48;;;;;;;8.10;1.83;;;;;;;12.00;58.27;100435.63;4232500;28;20051;-53
2024/01/04 05:27:51;;;;;;;7.65;2.25;;;;;;;12.03;58.26;100438.97;4232544;28;20047;-53
2024/01/04 05:29:54;;;;;;;7.30;1.83;;;;;;;12.02;58.42;100446.94;4232689;28;20382;-53
2024/01/04 05:31:56;;;;;;;7.32;1.80;;;;;;;12.02;58.22;100431.97;4232559;28;20066;-51
2024/01/04 05:33:58;;;;;;;9.30;2.30;;;;;;;12.03;58.19;100436.34;4232204;28;20044;-53
2024/01/04 05:35:59;;;;;;;6.68;1.80;;;;;;;12.03;58.35;100446.00;4232421;28;20198;-49
2024/01/04 05:38:01;;;;;;;8.00;2.20;;;;;;;11.93;58.42;100427.09;4232393;28;20494;-49
2024/01/04 05:40:03;;;;;;;8.18;2.05;;;;;;;11.97;58.25;100434.81;4232293;27;20044;-51
2024/01/04 05:42:05;;;;;;;9.02;2.13;;;;;;;12.02;58.50;100445.16;4232242;28;20089;-50
2024/01/04 05:44:07;;;;;;;7.43;2.00;;;;;;;12.01;58.33;100442.59;4232359;28;20113;-51
2024/01/04 05:46:08;;;;;;;9.43;2.40;;;;;;;12.00;58.25;100436.47;4232363;28;20044;-52
2024/01/04 05:48:10;;;;;;;7.97;2.10;;;;;;;12.00;58.15;100443.53;4231961;28;20054;-51
2024/01/04 05:50:12;;;;;;;6.65;1.63;;;;;;;11.99;58.15;100447.94;4232118;28;20089;-49
2024/01/04 05:52:13;;;;;;;7.82;2.13;;;;;;;11.99;58.45;100440.03;4232211;28;20086;-50
2024/01/04 05:54:15;;;;;;;7.43;1.88;;;;;;;11.98;58.25;100440.94;4232153;28;20054;-55
2024/01/04 05:56:17;;;;;;;9.23;2.55;;;;;;;11.98;58.53;100433.91;4232025;28;20075;-54
2024/01/04 05:58:19;;;;;;;7.60;2.00;;;;;;;11.98;58.52;100443.56;4232038;28;20040;-52
2024/01/04 06:00:20;;;;;;;7.57;1.95;;;;;;;12.00;58.52;100446.16;4230736;28;20051;-54
2024/01/04 06:02:23;;;;;;;9.55;1.90;;;;;;;11.98;58.17;100441.81;4215112;28;20047;-51
2024/01/04 06:04:25;;;;;;;8.50;2.10;;;;;;;11.98;58.55;100441.81;4214930;28;20089;-51
2024/01/04 06:06:27;;;;;;;9.13;2.05;;;;;;;11.99;58.49;100450.56;4214940;28;20040;-53
2024/01/04 06:08:28;;;;;;;9.48;2.10;;;;;;;11.98;58.35;100457.63;4215193;28;20044;-55
2024/01/04 06:10:30;;;;;;;8.45;1.98;;;;;;;11.98;58.07;100459.38;4213938;28;20052;-57
2024/01/04 06:12:32;;;;;;;8.15;2.17;;;;;;;11.98;58.48;100464.66;4215081;28;20552;-55
2024/01/04 06:14:34;;;;;;;9.15;2.15;;;;;;;11.97;58.47;100461.19;4223784;28;20051;-55
2024/01/04 06:16:41;;;;;;;8.02;1.70;;;;;;;11.97;58.09;100463.81;4231662;28;20056;-58
2024/01/04 06:18:47;;;;;;;7.50;2.17;;;;;;;11.93;58.13;100462.22;4231229;28;20050;-54
2024/01/04 06:20:50;;;;;;;7.95;1.98;;;;;;;11.94;58.19;100461.28;4231790;28;20292;-50
2024/01/04 06:22:52;;;;;;;8.23;2.08;;;;;;;11.97;58.44;100469.09;4231849;28;20075;-53
2024/01/04 06:24:54;;;;;;;7.55;2.05;;;;;;;11.96;58.12;100462.09;4231463;28;20071;-48
2024/01/04 06:26:56;;;;;;;9.45;2.03;;;;;;;11.97;57.87;100469.09;4231745;28;20050;-50
2024/01/04 06:28:58;;;;;;;7.65;1.75;;;;;;;11.97;58.23;100473.50;4231693;28;20422;-52
2024/01/04 06:30:59;;;;;;;9.27;2.30;;;;;;;11.96;58.25;100469.13;4231754;28;20055;-51
2024/01/04 06:33:01;;;;;;;7.78;1.80;;;;;;;11.96;58.01;100470.00;4231058;28;20050;-50
2024/01/04 06:35:03;;;;;;;7.53;1.80;;;;;;;11.96;58.37;100479.69;4230342;28;20047;-49
2024/01/04 06:37:05;;;;;;;7.40;1.77;;;;;;;11.97;58.36;100473.50;4230044;28;20071;-52
2024/01/04 06:39:07;;;;;;;8.40;2.00;;;;;;;11.95;58.10;100477.97;4231452;28;20044;-49
2024/01/04 06:41:10;;;;;;;7.55;2.13;;;;;;;11.97;58.16;100484.06;4230039;28;20067;-51
2024/01/04 06:43:12;;;;;;;8.30;2.20;;;;;;;11.97;58.23;100492.81;4231408;28;20138;-52
2024/01/04 06:45:14;;;;;;;7.25;1.85;;;;;;;11.96;58.25;100487.59;4231164;28;20443;-52
2024/01/04 06:47:15;;;;;;;7.80;1.88;;;;;;;11.96;58.29;100492.84;4231112;27;20499;-51
2024/01/04 06:49:17;;;;;;;7.90;1.92;;;;;;;11.96;58.25;100487.59;4231069;28;20047;-49
2024/01/04 06:51:23;;;;;;;7.25;1.90;;;;;;;11.95;58.29;100494.63;4231423;28;20071;-51
2024/01/04 06:53:26;;;;;;;8.32;2.17;;;;;;;11.93;58.43;100495.63;4231473;27;20135;-49
2024/01/04 06:55:27;;;;;;;7.47;1.83;;;;;;;11.96;58.02;100499.00;4231303;28;20050;-51
2024/01/04 06:57:29;;;;;;;5.88;1.60;;;;;;;11.97;58.25;100499.88;4231018;28;20044;-52
2024/01/04 06:59:30;;;;;;;7.50;1.83;;;;;;;11.96;58.00;100499.00;4230894;28;20496;-51
2024/01/04 07:01:32;;;;;;;7.70;1.90;;;;;;;11.96;57.94;100508.66;4219091;28;20089;-50
2024/01/04 07:03:34;;;;;;;7.53;1.70;;;;;;;11.97;58.47;100515.69;4214272;28;20051;-50
2024/01/04 07:05:35;;;;;;;9.52;1.95;;;;;;;11.97;58.40;100516.53;4214217;28;20055;-50
2024/01/04 07:07:38;;;;;;;7.05;2.03;;;;;;;11.97;58.08;100520.97;4213498;28;20123;-51
2024/01/04 07:09:39;;;;;;;8.70;2.20;;;;;;;11.97;58.34;100520.97;4214042;28;20046;-50
2024/01/04 07:11:41;;;;;;;8.23;1.85;;;;;;;11.97;58.43;100513.88;4214079;28;20419;-51
2024/01/04 07:13:42;;;;;;;8.48;1.98;;;;;;;11.97;58.06;100520.97;4216684;28;20488;-49
2024/01/04 07:15:44;;;;;;;8.98;1.85;;;;;;;11.97;58.14;100519.16;4230606;28;20097;-54
2024/01/04 07:17:46;;;;;;;7.63;1.77;;;;;;;11.96;58.08;100525.34;4230631;28;20051;-49
2024/01/04 07:19:48;;;;;;;8.18;1.92;;;;;;;11.97;58.42;100523.59;4230793;28;20047;-50
2024/01/04 07:21:49;;;;;;;6.78;1.58;;;;;;;11.97;58.19;100526.22;4230768;28;20398;-53
2024/01/04 07:23:56;;;;;;;8.95;2.30;;;;;;;11.97;58.36;100537.63;4230757;28;20163;-51
2024/01/04 07:25:57;;;;;;;7.78;2.03;;;;;;;11.97;58.25;100534.13;4230980;28;20047;-52
2024/01/04 07:28:00;;;;;;;8.50;1.70;;;;;;;11.93;58.30;100533.38;4230882;28;20463;-51
2024/01/04 07:30:01;;;;;;;;;;;;;;;11.95;58.42;100535.94;4230735;28;20055;-52
2024/01/04 07:32:03;;;;;;;5.93;1.57;;;;;;;11.93;58.59;100545.69;4230699;28;19920;-51
2024/01/04 07:34:06;;;;;;;7.95;1.90;;;;;;;11.94;58.17;100535.06;4230721;28;20052;-53
2024/01/04 07:36:08;;;;;;;6.72;1.45;;;;;;;11.91;58.14;100535.22;4230425;28;20097;-52
2024/01/04 07:38:10;;;;;;;6.78;1.70;;;;;;;11.95;58.46;100538.56;4230693;28;20566;-50
2024/01/04 07:40:12;;;;;;;7.95;1.80;;;;;;;11.93;58.19;100536.00;4230565;28;20513;-52
2024/01/04 07:42:14;;;;;;;7.07;1.70;;;;;;;11.94;58.37;100539.50;4230521;28;20044;-51
2024/01/04 07:44:16;;;;;;;8.15;1.98;;;;;;;11.94;58.28;100536.84;4230275;28;20150;-51
2024/01/04 07:46:17;;;;;;;5.95;1.85;;;;;;;11.93;58.37;100546.56;4230560;28;20047;-51
2024/01/04 07:48:25;;;;;;;7.85;2.05;;;;;;;11.93;58.52;100543.91;4230462;28;20046;-51
2024/01/04 07:50:27;;;;;;;6.68;1.73;;;;;;;11.93;58.32;100537.78;4230490;28;20502;-52
2024/01/04 07:52:29;;;;;;;6.55;1.83;;;;;;;11.90;58.43;100532.66;4230672;28;20044;-53
2024/01/04 07:54:31;;;;;;;7.30;2.00;;;;;;;11.92;58.23;100536.94;4230392;28;20046;-49
2024/01/04 07:56:46;;;;;;;7.95;2.10;;;;;;;11.87;58.22;100538.94;4229217;28;20046;-53
2024/01/04 07:58:48;;;;;;;6.47;1.77;;;;;;;11.92;58.25;100544.84;4229989;28;20481;-49
2024/01/04 08:00:49;;;;;;;8.80;2.17;;;;;;;11.92;58.20;100539.56;4225052;28;20040;-52
2024/01/04 08:02:51;;;;;;;7.07;1.55;;;;;;;11.92;58.58;100536.06;4213583;28;20044;-53
2024/01/04 08:04:53;;;;;;;7.32;1.77;;;;;;;11.89;58.33;100529.16;4213541;28;20036;-52
2024/01/04 08:06:55;;;;;;;7.43;1.75;;;;;;;11.91;58.29;100531.75;4213442;28;20052;-52
2024/01/04 08:08:57;;;;;;;6.82;1.90;;;;;;;11.88;58.15;100529.22;4213585;28;20438;-49
2024/01/04 08:11:02;;;;;;;7.18;1.85;;;;;;;11.92;58.14;100536.06;4213508;28;20060;-54
2024/01/04 08:13:05;;;;;;;9.68;2.10;;;;;;;11.92;58.12;100534.31;4212165;28;20044;-53
2024/01/04 08:15:08;;;;;;;7.05;1.75;;;;;;;11.92;58.55;100531.66;4227578;28;20048;-53
2024/01/04 08:17:10;;;;;;;9.32;2.03;;;;;;;11.92;58.41;100533.44;4229947;28;20069;-53
2024/01/04 08:19:12;;;;;;;10.13;2.35;;;;;;;11.91;58.49;100539.66;4231216;28;20085;-51
2024/01/04 08:21:14;;;;;;;;;;;;;;;11.89;58.44;100530.94;4234375;28;20130;-52
2024/01/04 08:23:15;;;;;;;9.93;2.50;;;;;;;11.85;58.56;100526.72;4233853;28;19927;-51
2024/01/04 08:25:17;;;;;;;6.07;1.70;;;;;;;11.91;58.22;100526.47;4233833;28;20081;-50
2024/01/04 08:27:19;;;;;;;8.10;2.05;;;;;;;11.90;58.59;100530.88;4232307;28;20040;-50
2024/01/04 08:29:21;;;;;;;7.13;1.63;;;;;;;11.88;58.33;100527.44;4233252;28;20051;-52
2024/01/04 08:31:23;;;;;;;7.43;1.88;;;;;;;11.91;58.68;100531.75;4233659;28;20047;-52
2024/01/04 08:33:25;;;;;;;8.40;1.98;;;;;;;11.87;58.50;100522.25;4233523;28;20039;-50
2024/01/04 08:35:26;;;;;;;7.55;1.80;;;;;;;11.91;58.13;100529.94;4233575;28;20054;-50
2024/01/04 08:37:28;;;;;;;9.35;2.35;;;;;;;11.91;58.39;100531.75;4233484;28;20048;-52
2024/01/04 08:39:31;;;;;;;6.97;1.45;;;;;;;11.91;58.53;100527.31;4233519;28;20067;-52
2024/01/04 08:41:32;;;;;;;7.38;2.28;;;;;;;11.91;58.19;100529.09;4233836;28;20442;-52
2024/01/04 08:43:34;;;;;;;9.40;2.30;;;;;;;11.92;58.22;100526.41;4232934;27;20075;-52
2024/01/04 08:45:36;;;;;;;8.32;1.77;;;;;;;11.90;58.29;100530.88;4233518;28;20494;-52
2024/01/04 08:47:38;;;;;;;8.43;2.22;;;;;;;11.91;58.08;100529.09;4233160;28;20050;-52
2024/01/04 08:49:39;;;;;;;6.85;1.75;;;;;;;11.92;58.32;100534.31;4233180;28;20096;-52
2024/01/04 08:51:41;;;;;;;9.32;2.20;;;;;;;11.92;58.38;100536.94;4233350;28;20105;-52
2024/01/04 08:53:44;;;;;;;7.35;1.98;;;;;;;11.93;57.99;100540.41;4233241;28;20119;-51
2024/01/04 08:55:46;;;;;;;;;;;;;;;11.91;58.50;100537.00;4233629;28;20075;-52
2024/01/04 08:57:48;;;;;;;7.57;1.80;;;;;;;11.87;58.55;100533.66;4232987;28;20292;-49
2024/01/04 08:59:50;;;;;;;7.75;2.00;;;;;;;11.91;58.16;100531.75;4233007;28;20047;-51
2024/01/04 09:01:51;;;;;;;7.03;2.03;;;;;;;11.91;58.08;100537.84;4219039;28;20131;-53
2024/01/04 09:03:53;;;;;;;8.32;2.83;;;;;;;11.91;58.06;100537.00;4216278;28;20051;-51
2024/01/04 09:05:55;;;;;;;7.85;2.10;;;;;;;11.91;58.46;100534.38;4215864;28;20043;-48
2024/01/04 09:07:57;;;;;;;7.85;2.20;;;;;;;11.90;58.08;100532.66;4215264;28;20502;-51
2024/01/04 09:09:59;;;;;;;11.52;2.50;;;;;;;11.89;58.85;100537.06;4222327;28;20505;-67
2024/01/04 09:12:00;;;;;;;;;;;;;;;11.89;58.73;100534.41;4229639;28;20075;-53
2024/01/04 09:14:05;;;;;;;18.87;2.97;;;;;;;11.94;59.37;100531.59;4218550;28;19919;-56
2024/01/04 09:16:07;;;;;;;11.15;2.40;;;;;;;12.06;58.64;100532.84;4231823;28;20286;-64
2024/01/04 09:18:08;;;;;;;66.72;6.45;;;;;;;12.05;58.10;100533.78;4224086;28;20155;-48
2024/01/04 09:20:13;;;;;;;46.72;4.55;;;;;;;12.06;58.19;100543.41;4230623;28;20043;-52
2024/01/04 09:22:15;;;;;;;18.38;3.30;;;;;;;11.98;58.05;100526.16;4227343;28;20123;-52
2024/01/04 09:24:18;;;;;;;14.02;2.47;;;;;;;12.05;58.13;100536.41;4219779;28;20426;-47
2024/01/04 09:26:20;;;;;;;12.57;2.25;;;;;;;12.05;58.24;100533.78;4217522;28;20414;-48
2024/01/04 09:28:24;;;;;;;10.25;2.30;;;;;;;12.04;57.89;100532.94;4219328;28;20040;-48